Time;durP1;ratioP1;P1;durP2;ratioP2;P2;SDS_P1;SDS_P2;PMS_P1;PMS_P2;Temp;Humidity;BMP_temperature;BMP_pressure;BME280_temperature;BME280_humidity;BME280_pressure;Samples;Min_cycle;Max_cycle;Signal;HPM_P1;HPM_P2
2024/01/11 00:01:23;;;;;;;35.58;13.25;;;-1.60;99.90;;;;;;5055918;28;20051;-67
2024/01/11 00:03:49;;;;;;;25.50;12.10;;;-1.70;99.90;;;;;;5057153;28;20025;-68
2024/01/11 00:06:14;;;;;;;36.08;13.23;;;-1.70;99.90;;;;;;5056634;28;20025;-67
2024/01/11 00:08:40;;;;;;;45.25;12.55;;;-1.80;99.90;;;;;;5060254;28;20037;-67
2024/01/11 00:11:05;;;;;;;38.33;12.77;;;-1.80;99.90;;;;;;5060025;28;20074;-67
2024/01/11 00:13:31;;;;;;;31.00;12.88;;;-1.70;99.90;;;;;;5059804;28;20040;-67
2024/01/11 00:15:56;;;;;;;33.97;12.48;;;-1.70;99.90;;;;;;5060957;28;20037;-68
2024/01/11 00:18:22;;;;;;;41.08;13.27;;;-1.70;99.90;;;;;;5060720;28;20031;-68
2024/01/11 00:20:47;;;;;;;33.92;11.70;;;-1.70;99.90;;;;;;5060541;28;20033;-67
2024/01/11 00:23:13;;;;;;;37.70;14.43;;;-1.80;99.90;;;;;;5060302;28;20040;-67
2024/01/11 00:25:38;;;;;;;36.08;13.18;;;-1.80;99.90;;;;;;5060356;28;20029;-67
2024/01/11 00:28:04;;;;;;;37.70;13.00;;;-1.90;99.90;;;;;;5059300;28;20025;-67
2024/01/11 00:30:29;;;;;;;37.10;12.60;;;-1.90;99.90;;;;;;5059305;28;20033;-68
2024/01/11 00:32:55;;;;;;;39.67;12.52;;;-1.80;99.90;;;;;;5060721;28;20067;-68
2024/01/11 00:35:21;;;;;;;37.10;12.73;;;-1.90;99.90;;;;;;5060077;28;20028;-67
2024/01/11 00:37:46;;;;;;;44.88;13.38;;;-2.00;99.90;;;;;;5060284;28;20025;-67
2024/01/11 00:40:12;;;;;;;37.33;13.77;;;-2.10;99.90;;;;;;5060056;28;20040;-69
2024/01/11 00:42:37;;;;;;;39.95;13.52;;;-2.10;99.90;;;;;;5060598;28;20111;-67
2024/01/11 00:45:03;;;;;;;38.13;13.18;;;-2.00;99.90;;;;;;5059181;28;20031;-67
2024/01/11 00:47:29;;;;;;;36.72;13.07;;;-1.90;99.90;;;;;;5059649;28;20029;-68
2024/01/11 00:49:54;;;;;;;39.92;13.55;;;-1.80;99.90;;;;;;5059273;28;20021;-67
2024/01/11 00:52:20;;;;;;;39.17;12.73;;;-1.80;99.90;;;;;;5059092;28;20024;-68
2024/01/11 00:54:46;;;;;;;40.15;12.50;;;-1.70;99.90;;;;;;5059708;28;20028;-67
2024/01/11 00:57:11;;;;;;;38.10;14.25;;;-1.80;99.90;;;;;;5058879;28;20075;-68
2024/01/11 00:59:37;;;;;;;40.58;14.13;;;-1.90;99.90;;;;;;5060259;28;20021;-67
2024/01/11 01:02:02;;;;;;;37.50;14.15;;;-1.90;99.90;;;;;;5059767;28;20112;-67
2024/01/11 01:04:28;;;;;;;41.72;12.85;;;-1.90;99.90;;;;;;5059677;28;20033;-68
2024/01/11 01:06:53;;;;;;;38.70;14.45;;;-1.90;99.90;;;;;;5058945;28;20025;-67
2024/01/11 01:09:19;;;;;;;43.35;13.20;;;-2.00;99.90;;;;;;5059533;28;20032;-67
2024/01/11 01:11:44;;;;;;;37.10;12.90;;;-2.00;99.90;;;;;;5059039;28;20024;-68
2024/01/11 01:14:10;;;;;;;43.30;13.60;;;-2.00;99.90;;;;;;5058734;28;20033;-67
2024/01/11 01:16:35;;;;;;;40.72;14.10;;;-2.10;99.90;;;;;;5060184;28;20029;-67
2024/01/11 01:19:01;;;;;;;41.78;13.38;;;-2.10;99.90;;;;;;5057738;28;20013;-68
2024/01/11 01:21:27;;;;;;;32.10;13.05;;;-2.20;99.90;;;;;;5058905;28;20021;-67
2024/01/11 01:23:53;;;;;;;44.83;14.07;;;-2.10;99.90;;;;;;5059298;28;20017;-67
2024/01/11 01:26:19;;;;;;;42.13;12.82;;;-2.00;99.90;;;;;;5059287;28;20036;-68
2024/01/11 01:28:45;;;;;;;43.13;13.32;;;-2.00;99.90;;;;;;5058174;28;20025;-67
2024/01/11 01:31:11;;;;;;;39.25;13.93;;;-2.00;99.90;;;;;;5059310;28;20052;-67
2024/01/11 01:33:37;;;;;;;39.33;13.38;;;-1.90;99.90;;;;;;5058277;28;20025;-67
2024/01/11 01:36:03;;;;;;;44.65;13.38;;;-1.90;99.90;;;;;;5058922;28;20029;-67
2024/01/11 01:38:30;;;;;;;39.85;12.82;;;-1.80;99.90;;;;;;5058249;28;20025;-67
2024/01/11 01:40:55;;;;;;;40.47;13.95;;;-1.90;99.90;;;;;;5059445;28;20032;-67
2024/01/11 01:43:21;;;;;;;43.42;14.80;;;-2.00;99.90;;;;;;5058090;28;20093;-67
2024/01/11 01:45:47;;;;;;;41.63;13.35;;;-2.30;99.90;;;;;;5058922;28;20033;-67
2024/01/11 01:48:12;;;;;;;42.42;14.13;;;-2.40;99.90;;;;;;5058838;28;20082;-68
2024/01/11 01:50:38;;;;;;;42.53;13.73;;;-2.30;99.90;;;;;;5058916;28;20028;-68
2024/01/11 01:53:04;;;;;;;41.58;13.30;;;-2.20;99.90;;;;;;5057813;28;20028;-68
2024/01/11 01:55:30;;;;;;;42.95;13.75;;;-2.20;99.90;;;;;;5058307;28;20035;-67
2024/01/11 01:57:57;;;;;;;45.97;14.68;;;-2.20;99.90;;;;;;5057607;28;20013;-67
2024/01/11 02:00:23;;;;;;;40.58;15.20;;;-2.30;99.90;;;;;;5058594;28;20036;-67
2024/01/11 02:02:51;;;;;;;47.95;16.35;;;-2.40;99.90;;;;;;5058719;28;20025;-67
2024/01/11 02:05:17;;;;;;;41.15;14.10;;;-2.50;99.90;;;;;;5058470;28;20021;-67
2024/01/11 02:07:44;;;;;;;39.30;13.52;;;-2.50;99.90;;;;;;5058835;28;20033;-68
2024/01/11 02:10:10;;;;;;;47.38;14.70;;;-2.60;99.90;;;;;;5057569;28;20059;-67
2024/01/11 02:12:39;;;;;;;43.25;14.77;;;-2.40;99.90;;;;;;5058381;28;20052;-68
2024/01/11 02:15:05;;;;;;;41.80;15.00;;;-2.50;99.90;;;;;;5057808;28;20082;-67
2024/01/11 02:17:31;;;;;;;41.03;13.40;;;-2.40;99.90;;;;;;5058333;28;20023;-68
2024/01/11 02:19:57;;;;;;;48.92;14.55;;;-2.40;99.90;;;;;;5057344;28;20021;-68
2024/01/11 02:22:28;;;;;;;44.17;14.32;;;-2.50;99.90;;;;;;5057406;28;20085;-67
2024/01/11 02:24:54;;;;;;;48.28;13.43;;;-2.40;99.90;;;;;;5058132;28;20028;-69
2024/01/11 02:27:19;;;;;;;39.33;14.07;;;-2.40;99.90;;;;;;5057275;28;20119;-67
2024/01/11 02:29:45;;;;;;;40.30;13.93;;;-2.30;99.90;;;;;;5057145;28;20123;-67
2024/01/11 02:32:11;;;;;;;40.55;14.38;;;-2.40;99.90;;;;;;5057916;28;20032;-67
2024/01/11 02:34:37;;;;;;;48.38;13.80;;;-2.50;99.90;;;;;;5057989;28;20021;-67
2024/01/11 02:37:04;;;;;;;34.67;12.55;;;-2.50;99.90;;;;;;5057875;28;20021;-68
2024/01/11 02:39:29;;;;;;;40.63;13.60;;;-2.50;99.90;;;;;;5057730;28;20022;-67
2024/01/11 02:41:57;;;;;;;42.83;13.82;;;-2.60;99.90;;;;;;5057863;28;20040;-67
2024/01/11 02:44:22;;;;;;;44.25;13.45;;;-2.70;99.90;;;;;;5057805;28;20021;-68
2024/01/11 02:46:48;;;;;;;34.72;12.35;;;-2.60;99.90;;;;;;5057790;28;20044;-68
2024/01/11 02:49:13;;;;;;;39.20;13.00;;;-2.70;99.90;;;;;;5057670;28;20029;-68
2024/01/11 02:51:39;;;;;;;34.50;12.65;;;-2.80;99.90;;;;;;5056604;28;20063;-67
2024/01/11 02:54:05;;;;;;;49.38;14.20;;;-2.80;99.90;;;;;;5057776;28;20071;-67
2024/01/11 02:56:30;;;;;;;33.15;12.57;;;-2.80;99.90;;;;;;5057604;28;20033;-67
2024/01/11 02:58:56;;;;;;;34.17;12.57;;;-2.80;99.90;;;;;;5057282;28;20021;-67
2024/01/11 03:01:21;;;;;;;32.72;12.57;;;-2.70;99.90;;;;;;5056866;28;20033;-67
2024/01/11 03:03:47;;;;;;;32.47;12.32;;;-2.60;99.90;;;;;;5057375;28;20032;-67
2024/01/11 03:06:13;;;;;;;39.45;13.20;;;-2.60;99.90;;;;;;5057753;28;20021;-67
2024/01/11 03:08:39;;;;;;;35.58;12.98;;;-2.50;99.90;;;;;;5057448;28;20046;-67
2024/01/11 03:11:05;;;;;;;34.78;12.05;;;-2.50;99.90;;;;;;5057406;28;20103;-67
2024/01/11 03:13:31;;;;;;;33.13;12.75;;;-2.40;99.90;;;;;;5056389;28;20033;-67
2024/01/11 03:15:57;;;;;;;38.22;15.00;;;-2.50;99.90;;;;;;5057177;28;20110;-67
2024/01/11 03:18:22;;;;;;;39.28;13.15;;;-2.70;99.90;;;;;;5057353;28;20019;-68
2024/01/11 03:20:48;;;;;;;41.65;14.00;;;-2.70;99.90;;;;;;5057200;28;20060;-67
2024/01/11 03:23:13;;;;;;;38.38;12.82;;;-2.70;99.90;;;;;;5056158;28;20021;-67
2024/01/11 03:25:39;;;;;;;46.92;13.45;;;-2.70;99.90;;;;;;5057324;28;20044;-67
2024/01/11 03:28:04;;;;;;;43.78;13.90;;;-2.70;99.90;;;;;;5056399;28;20130;-67
2024/01/11 03:30:30;;;;;;;36.08;13.23;;;-2.80;99.90;;;;;;5056017;28;20025;-67
2024/01/11 03:32:56;;;;;;;34.00;13.05;;;-2.80;99.90;;;;;;5057043;28;20088;-68
2024/01/11 03:35:21;;;;;;;39.67;12.68;;;-2.80;99.90;;;;;;5056895;28;20075;-67
2024/01/11 03:37:47;;;;;;;43.00;13.80;;;-2.80;99.90;;;;;;5056805;28;20025;-67
2024/01/11 03:40:14;;;;;;;39.78;14.05;;;-2.70;99.90;;;;;;5056872;28;20021;-67
2024/01/11 03:42:39;;;;;;;39.35;13.75;;;-2.90;99.90;;;;;;5055459;28;20104;-68
2024/01/11 03:45:05;;;;;;;44.30;14.43;;;-2.90;99.90;;;;;;5055951;28;20388;-68
2024/01/11 03:47:31;;;;;;;43.42;13.30;;;-3.00;99.90;;;;;;5056725;28;20032;-68
2024/01/11 03:49:56;;;;;;;42.70;13.45;;;-3.10;99.90;;;;;;5056648;28;20021;-67
2024/01/11 03:52:22;;;;;;;46.25;13.65;;;-3.00;99.90;;;;;;5056888;28;20096;-68
2024/01/11 03:54:48;;;;;;;42.05;13.45;;;-3.00;99.90;;;;;;5056532;28;20033;-67
2024/01/11 03:57:13;;;;;;;40.85;13.73;;;-3.00;99.90;;;;;;5055923;28;20017;-68
2024/01/11 03:59:40;;;;;;;51.45;15.55;;;-3.00;99.90;;;;;;5056650;28;20037;-67
2024/01/11 04:02:06;;;;;;;42.25;13.00;;;-3.00;99.90;;;;;;5056043;28;20029;-68
2024/01/11 04:04:32;;;;;;;42.67;13.50;;;-3.00;99.90;;;;;;5056667;28;20032;-67
2024/01/11 04:06:58;;;;;;;43.90;13.90;;;-3.10;99.90;;;;;;5056761;28;20025;-67
2024/01/11 04:09:23;;;;;;;36.45;14.05;;;-3.10;99.90;;;;;;5056562;28;20025;-67
2024/01/11 04:11:49;;;;;;;42.53;13.90;;;-3.20;99.90;;;;;;5056569;28;20029;-67
2024/01/11 04:14:14;;;;;;;42.65;15.20;;;-3.30;99.90;;;;;;5056678;28;20032;-68
2024/01/11 04:16:41;;;;;;;43.03;14.35;;;-3.40;99.90;;;;;;5056579;28;20021;-67
2024/01/11 04:19:07;;;;;;;42.50;13.68;;;-3.40;99.90;;;;;;5056710;28;20021;-67
2024/01/11 04:21:32;;;;;;;40.63;12.80;;;-3.30;99.90;;;;;;5055452;28;20029;-67
2024/01/11 04:23:58;;;;;;;34.88;12.82;;;-3.40;99.90;;;;;;5056207;28;20020;-68
2024/01/11 04:26:23;;;;;;;38.00;12.95;;;-3.40;99.90;;;;;;5056370;28;20021;-67
2024/01/11 04:28:52;;;;;;;35.85;12.25;;;-3.40;99.90;;;;;;5055483;28;20039;-67
2024/01/11 04:31:18;;;;;;;38.72;11.57;;;-3.40;99.90;;;;;;5055475;28;20029;-67
2024/01/11 04:33:45;;;;;;;34.47;13.50;;;-3.40;99.90;;;;;;5056542;28;20052;-67
2024/01/11 04:36:11;;;;;;;34.28;13.35;;;-3.40;99.90;;;;;;5055351;28;20057;-67
2024/01/11 04:38:39;;;;;;;39.55;12.88;;;-3.50;99.90;;;;;;5056525;28;20025;-67
2024/01/11 04:41:09;;;;;;;36.03;13.27;;;-3.50;99.90;;;;;;5056634;28;20025;-67
2024/01/11 04:43:43;;;;;;;34.25;12.77;;;-3.50;99.90;;;;;;5056488;28;20021;-67
2024/01/11 04:46:22;;;;;;;42.25;12.55;;;-3.50;99.90;;;;;;5055462;28;20163;-68
2024/01/11 04:48:49;;;;;;;44.20;13.27;;;-3.50;99.90;;;;;;5055362;28;20060;-67
2024/01/11 04:51:15;;;;;;;31.45;12.57;;;-3.50;99.90;;;;;;5055790;28;20025;-67
2024/01/11 04:53:42;;;;;;;32.45;12.10;;;-3.40;99.90;;;;;;5055745;28;20074;-68
2024/01/11 04:56:08;;;;;;;41.22;11.65;;;-3.20;99.90;;;;;;5058897;28;20150;-67
2024/01/11 04:58:35;;;;;;;32.58;12.52;;;-3.20;99.90;;;;;;5059909;28;20025;-67
2024/01/11 05:01:00;;;;;;;40.08;14.02;;;-3.20;99.90;;;;;;5059023;28;20108;-67
2024/01/11 05:03:26;;;;;;;34.90;12.25;;;-3.20;99.90;;;;;;5059056;28;20052;-67
2024/01/11 05:05:51;;;;;;;38.53;13.23;;;-3.20;99.90;;;;;;5059764;28;20021;-67
2024/01/11 05:08:17;;;;;;;37.85;13.80;;;-3.20;99.90;;;;;;5059676;28;20040;-68
2024/01/11 05:10:43;;;;;;;40.05;13.00;;;-3.40;99.90;;;;;;5058623;28;20021;-67
2024/01/11 05:13:08;;;;;;;35.65;12.95;;;-3.40;99.90;;;;;;5060054;28;20039;-67
2024/01/11 05:15:34;;;;;;;41.38;13.23;;;-3.50;99.90;;;;;;5059462;28;20067;-68
2024/01/11 05:18:00;;;;;;;32.38;11.93;;;-3.50;99.90;;;;;;5059527;28;20029;-67
2024/01/11 05:20:25;;;;;;;44.58;13.63;;;-3.50;99.90;;;;;;5058943;28;20060;-68
2024/01/11 05:22:51;;;;;;;32.10;12.45;;;-3.40;99.90;;;;;;5059554;28;20076;-68
2024/01/11 05:25:16;;;;;;;34.35;13.15;;;-3.50;99.90;;;;;;5058749;28;20025;-67
2024/01/11 05:27:42;;;;;;;41.47;12.82;;;-3.50;99.90;;;;;;5058932;28;20024;-67
2024/01/11 05:30:08;;;;;;;41.58;14.82;;;-3.50;99.90;;;;;;5058576;28;20021;-67
2024/01/11 05:32:33;;;;;;;37.10;12.88;;;-3.50;99.90;;;;;;5059009;28;20025;-67
2024/01/11 05:34:59;;;;;;;40.08;13.68;;;-3.60;99.90;;;;;;5058159;28;20021;-67
2024/01/11 05:37:24;;;;;;;38.28;12.45;;;-3.60;99.90;;;;;;5058109;28;20021;-68
2024/01/11 05:39:50;;;;;;;48.17;13.77;;;-3.60;99.90;;;;;;5058436;28;20023;-68
2024/01/11 05:42:16;;;;;;;39.63;13.43;;;-3.60;99.90;;;;;;5057945;28;20033;-68
2024/01/11 05:44:41;;;;;;;37.50;12.10;;;-3.50;99.90;;;;;;5058390;28;20024;-68
2024/01/11 05:47:07;;;;;;;37.42;12.65;;;-3.60;99.90;;;;;;5058902;28;20017;-68
2024/01/11 05:49:32;;;;;;;37.83;11.93;;;-3.70;99.90;;;;;;5058005;28;20025;-68
2024/01/11 05:51:58;;;;;;;37.22;12.82;;;-3.60;99.90;;;;;;5057962;28;20029;-68
2024/01/11 05:54:25;;;;;;;38.90;12.75;;;-3.70;99.90;;;;;;5058088;28;20028;-68
2024/01/11 05:56:55;;;;;;;34.72;12.20;;;-3.80;99.90;;;;;;5058055;28;20032;-69
2024/01/11 05:59:21;;;;;;;37.67;13.63;;;-3.80;99.90;;;;;;5057831;28;20017;-68
2024/01/11 06:01:47;;;;;;;35.38;12.23;;;-3.70;99.90;;;;;;5058061;28;20028;-68
2024/01/11 06:04:12;;;;;;;41.97;13.02;;;-3.70;99.90;;;;;;5058556;28;20028;-68
2024/01/11 06:06:38;;;;;;;32.60;12.30;;;-3.60;99.90;;;;;;5057628;28;20032;-68
2024/01/11 06:09:06;;;;;;;45.10;14.00;;;-3.50;99.90;;;;;;5057484;28;20104;-68
2024/01/11 06:11:32;;;;;;;35.35;13.20;;;-3.40;99.90;;;;;;5057861;28;20027;-68
2024/01/11 06:13:57;;;;;;;42.35;14.60;;;-3.40;99.90;;;;;;5057464;28;20025;-68
2024/01/11 06:16:23;;;;;;;44.17;13.63;;;-3.30;99.90;;;;;;5057749;28;20052;-68
2024/01/11 06:18:49;;;;;;;41.88;13.13;;;-3.40;99.90;;;;;;5057381;28;20032;-68
2024/01/11 06:21:16;;;;;;;39.58;13.70;;;-3.30;99.90;;;;;;5057412;28;20021;-68
2024/01/11 06:23:43;;;;;;;42.00;13.27;;;-3.30;99.90;;;;;;5057585;28;20021;-68
2024/01/11 06:26:09;;;;;;;38.92;14.75;;;-3.10;99.90;;;;;;5058204;28;20025;-68
2024/01/11 06:28:34;;;;;;;41.22;13.13;;;-3.10;99.90;;;;;;5057173;28;20032;-68
2024/01/11 06:31:00;;;;;;;44.95;14.93;;;-3.10;99.90;;;;;;5057619;28;20162;-68
2024/01/11 06:33:25;;;;;;;36.42;13.32;;;-3.10;99.90;;;;;;5056991;28;20061;-68
2024/01/11 06:35:51;;;;;;;45.53;14.23;;;-3.10;99.90;;;;;;5056937;28;20106;-68
2024/01/11 06:38:16;;;;;;;36.20;13.48;;;-3.20;99.90;;;;;;5057095;28;20045;-68
2024/01/11 06:40:43;;;;;;;38.67;14.25;;;-3.30;99.90;;;;;;5057205;28;20028;-68
2024/01/11 06:43:08;;;;;;;42.63;14.25;;;-3.30;99.90;;;;;;5056934;28;20032;-68
2024/01/11 06:45:35;;;;;;;41.17;13.35;;;-3.30;99.90;;;;;;5057449;28;20039;-68
2024/01/11 06:48:00;;;;;;;35.30;12.75;;;-3.40;99.90;;;;;;5057613;28;20086;-68
2024/01/11 06:50:26;;;;;;;37.35;12.63;;;-3.50;99.90;;;;;;5056830;28;20021;-68
2024/01/11 06:52:51;;;;;;;50.15;14.70;;;-3.50;99.90;;;;;;5056734;28;20028;-68
2024/01/11 06:55:17;;;;;;;35.92;13.23;;;-3.60;99.90;;;;;;5056601;28;20074;-68
2024/01/11 06:57:46;;;;;;;38.80;13.63;;;-3.60;99.90;;;;;;5056640;28;20024;-68
2024/01/11 07:00:13;;;;;;;38.63;12.68;;;-3.70;99.90;;;;;;5056984;28;20021;-68
2024/01/11 07:02:40;;;;;;;48.58;14.95;;;-3.60;99.90;;;;;;5056585;28;20029;-68
2024/01/11 07:05:06;;;;;;;42.50;13.50;;;-3.40;99.90;;;;;;5056677;28;20025;-68
2024/01/11 07:07:32;;;;;;;45.85;14.95;;;-3.40;99.90;;;;;;5056394;28;20032;-67
2024/01/11 07:09:58;;;;;;;41.38;12.55;;;-3.50;99.90;;;;;;5057395;28;20032;-68
2024/01/11 07:12:24;;;;;;;33.83;12.70;;;-3.40;99.90;;;;;;5057137;28;20029;-67
2024/01/11 07:14:49;;;;;;;37.72;12.90;;;-3.50;99.90;;;;;;5056292;28;20025;-67
2024/01/11 07:17:15;;;;;;;41.95;13.93;;;-3.50;99.90;;;;;;5056412;28;20021;-67
2024/01/11 07:19:40;;;;;;;47.17;14.20;;;-3.50;99.90;;;;;;5056024;28;20025;-67
2024/01/11 07:22:06;;;;;;;42.10;14.73;;;-3.60;99.90;;;;;;5056046;28;20025;-67
2024/01/11 07:24:37;;;;;;;42.55;13.93;;;-3.40;99.90;;;;;;5056563;28;20031;-68
2024/01/11 07:27:05;;;;;;;51.60;15.80;;;-3.40;99.90;;;;;;5056471;28;20047;-68
2024/01/11 07:29:30;;;;;;;43.05;14.05;;;-3.50;99.90;;;;;;5056554;28;20028;-68
2024/01/11 07:31:56;;;;;;;35.92;12.63;;;-3.40;99.90;;;;;;5056000;28;20051;-67
2024/01/11 07:34:21;;;;;;;35.95;13.07;;;-3.40;99.90;;;;;;5055852;28;20068;-68
2024/01/11 07:36:48;;;;;;;46.72;14.80;;;-3.40;99.90;;;;;;5055845;28;20051;-69
2024/01/11 07:39:14;;;;;;;46.47;14.75;;;-3.40;99.90;;;;;;5055737;28;20060;-68
2024/01/11 07:41:39;;;;;;;42.28;14.82;;;-3.50;99.90;;;;;;5055844;28;20071;-68
2024/01/11 07:44:05;;;;;;;41.38;14.45;;;-3.30;99.90;;;;;;5056793;28;20024;-69
2024/01/11 07:46:30;;;;;;;44.38;14.98;;;-3.20;99.90;;;;;;5056602;28;20053;-70
2024/01/11 07:48:56;;;;;;;41.40;14.38;;;-3.00;99.90;;;;;;5056484;28;20025;-71
2024/01/11 07:51:22;;;;;;;40.88;14.57;;;-3.00;99.90;;;;;;5056709;28;20025;-70
2024/01/11 07:53:47;;;;;;;46.03;14.85;;;-3.00;99.90;;;;;;5056919;28;20032;-70
2024/01/11 07:56:13;;;;;;;45.65;16.25;;;-3.00;99.90;;;;;;5056512;28;20036;-70
2024/01/11 07:58:41;;;;;;;40.08;14.32;;;-3.20;99.90;;;;;;5056595;28;20021;-70
2024/01/11 08:01:07;;;;;;;47.95;15.05;;;-3.20;99.90;;;;;;5055741;28;20104;-70
2024/01/11 08:03:34;;;;;;;47.47;15.80;;;-3.30;99.90;;;;;;5057162;28;20028;-69
2024/01/11 08:06:00;;;;;;;38.47;13.77;;;-3.30;99.90;;;;;;5055572;28;20029;-70
2024/01/11 08:08:26;;;;;;;39.92;14.45;;;-3.20;99.90;;;;;;5055643;28;20029;-70
2024/01/11 08:10:51;;;;;;;44.20;13.80;;;-3.30;99.90;;;;;;5056514;28;20043;-70
2024/01/11 08:13:18;;;;;;;43.83;15.20;;;-3.30;99.90;;;;;;5056478;28;20041;-69
2024/01/11 08:15:43;;;;;;;38.90;13.00;;;-3.40;99.90;;;;;;5056424;28;20076;-70
2024/01/11 08:18:09;;;;;;;41.83;14.38;;;-3.60;99.90;;;;;;5056321;28;20052;-70
2024/01/11 08:20:35;;;;;;;48.47;13.52;;;-3.60;99.90;;;;;;5055462;28;20021;-70
2024/01/11 08:23:00;;;;;;;48.72;15.50;;;-3.60;99.90;;;;;;5056046;28;20021;-70
2024/01/11 08:25:26;;;;;;;48.50;14.27;;;-3.50;99.90;;;;;;5056392;28;20021;-70
2024/01/11 08:27:52;;;;;;;49.50;14.95;;;-3.20;99.90;;;;;;5057279;28;20028;-69
2024/01/11 08:30:17;;;;;;;47.38;15.82;;;-3.10;99.90;;;;;;5060689;28;20134;-69
2024/01/11 08:32:43;;;;;;;40.13;14.50;;;-3.10;99.90;;;;;;5060372;28;20025;-70
2024/01/11 08:35:11;;;;;;;46.97;15.43;;;-3.00;99.90;;;;;;5059609;28;20111;-70
2024/01/11 08:37:38;;;;;;;45.20;15.63;;;-2.90;99.90;;;;;;5060280;28;20021;-70
2024/01/11 08:40:07;;;;;;;49.47;15.35;;;-3.00;99.90;;;;;;5060261;28;20025;-70
2024/01/11 08:42:33;;;;;;;49.88;15.52;;;-2.80;99.90;;;;;;5060084;28;20116;-70
2024/01/11 08:44:58;;;;;;;39.90;14.20;;;-2.80;99.90;;;;;;5060155;28;20060;-70
2024/01/11 08:47:24;;;;;;;46.53;15.55;;;-2.70;99.90;;;;;;5059684;28;20029;-70
2024/01/11 08:49:50;;;;;;;38.33;14.65;;;-2.60;99.90;;;;;;5059938;28;20025;-70
2024/01/11 08:52:15;;;;;;;41.03;14.98;;;-2.60;99.90;;;;;;5059143;28;20040;-70
2024/01/11 08:54:41;;;;;;;43.03;15.05;;;-2.50;99.90;;;;;;5059798;28;20037;-70
2024/01/11 08:57:06;;;;;;;45.75;15.85;;;-2.50;99.90;;;;;;5059753;28;20074;-70
2024/01/11 08:59:32;;;;;;;47.47;16.77;;;-2.40;99.90;;;;;;5059813;28;20051;-70
2024/01/11 09:01:58;;;;;;;45.47;15.95;;;-2.30;99.90;;;;;;5059778;28;20045;-70
2024/01/11 09:04:23;;;;;;;39.28;14.18;;;-2.40;99.90;;;;;;5059868;28;20057;-70
2024/01/11 09:06:49;;;;;;;41.53;14.75;;;-2.40;99.90;;;;;;5060219;28;20033;-70
2024/01/11 09:09:15;;;;;;;41.90;14.18;;;-2.30;99.90;;;;;;5059646;28;20040;-70
2024/01/11 09:11:40;;;;;;;45.72;16.13;;;-2.50;99.90;;;;;;5059765;28;20034;-70
2024/01/11 09:14:07;;;;;;;47.47;14.60;;;-2.40;99.90;;;;;;5058524;28;20021;-69
2024/01/11 09:16:33;;;;;;;48.58;16.73;;;-2.40;99.90;;;;;;5059464;28;20151;-70
2024/01/11 09:19:00;;;;;;;44.00;14.75;;;-2.20;99.90;;;;;;5058529;28;20041;-70
2024/01/11 09:21:26;;;;;;;46.83;14.60;;;-2.20;99.90;;;;;;5059459;28;20044;-70
2024/01/11 09:23:51;;;;;;;52.90;17.88;;;-2.10;99.90;;;;;;5058794;28;20021;-70
2024/01/11 09:26:17;;;;;;;45.30;15.98;;;-2.00;99.90;;;;;;5059668;28;20021;-70
2024/01/11 09:28:42;;;;;;;45.67;14.90;;;-1.90;99.90;;;;;;5059743;28;20032;-70
2024/01/11 09:31:08;;;;;;;50.67;14.68;;;-1.90;99.90;;;;;;5059312;28;20104;-70
2024/01/11 09:33:33;;;;;;;44.78;14.18;;;-1.90;99.90;;;;;;5059341;28;20103;-70
2024/01/11 09:35:59;;;;;;;47.03;16.20;;;-2.00;99.90;;;;;;5059059;28;20117;-70
2024/01/11 09:38:25;;;;;;;49.13;15.82;;;-1.90;99.90;;;;;;5058228;28;20025;-70
2024/01/11 09:41:07;;;;;;;44.92;15.93;;;-1.90;99.90;;;;;;5058160;28;20023;-70
2024/01/11 09:43:36;;;;;;;42.28;16.08;;;-1.80;99.90;;;;;;5059147;28;20014;-70
2024/01/11 09:46:05;;;;;;;41.95;16.05;;;-1.70;99.90;;;;;;5059516;28;20029;-70
2024/01/11 09:48:33;;;;;;;50.17;17.08;;;-1.70;99.90;;;;;;5058948;28;20021;-70
2024/01/11 09:51:03;;;;;;;40.67;16.50;;;-1.70;99.90;;;;;;5058318;28;20036;-70
2024/01/11 09:53:33;;;;;;;44.08;15.93;;;-1.50;99.90;;;;;;5058792;28;20117;-70
2024/01/11 09:55:59;;;;;;;42.35;15.07;;;-1.30;99.90;;;;;;5058633;28;20021;-70
2024/01/11 09:58:25;;;;;;;47.55;15.48;;;-1.30;99.90;;;;;;5058849;28;20017;-69
2024/01/11 10:00:55;;;;;;;46.90;16.33;;;-1.20;99.90;;;;;;5058715;28;20103;-70
2024/01/11 10:03:24;;;;;;;44.65;15.25;;;-1.00;99.90;;;;;;5058657;28;20106;-70
2024/01/11 10:05:51;;;;;;;48.63;16.50;;;-1.00;99.90;;;;;;5058703;28;20021;-70
2024/01/11 10:08:21;;;;;;;43.50;16.75;;;-0.90;99.90;;;;;;5058498;28;20040;-70
2024/01/11 10:10:48;;;;;;;52.00;16.08;;;-1.00;99.90;;;;;;5057724;28;20029;-70
2024/01/11 10:13:14;;;;;;;50.00;17.77;;;-0.70;99.90;;;;;;5058715;28;20025;-70
2024/01/11 10:15:39;;;;;;;43.50;15.95;;;-0.70;99.90;;;;;;5058423;28;20025;-70
2024/01/11 10:18:05;;;;;;;43.58;14.98;;;-0.60;99.90;;;;;;5058323;28;20025;-70
2024/01/11 10:20:32;;;;;;;45.13;17.23;;;-0.60;99.90;;;;;;5058617;28;20024;-69
2024/01/11 10:22:58;;;;;;;41.70;16.08;;;-0.30;99.90;;;;;;5058878;28;20023;-70
2024/01/11 10:25:23;;;;;;;48.30;16.67;;;-0.20;99.90;;;;;;5057699;28;20029;-69
2024/01/11 10:27:49;;;;;;;46.13;16.20;;;-0.10;99.90;;;;;;5058452;28;20120;-70
2024/01/11 10:30:16;;;;;;;47.35;17.27;;;0.10;99.90;;;;;;5057651;28;20032;-70
2024/01/11 10:32:49;;;;;;;42.30;15.13;;;0.20;99.90;;;;;;5057715;28;20040;-70
2024/01/11 10:35:16;;;;;;;45.90;15.90;;;0.40;99.90;;;;;;5058008;28;20100;-70
2024/01/11 10:37:43;;;;;;;43.70;15.40;;;0.50;99.90;;;;;;5057079;28;20055;-69
2024/01/11 10:40:12;;;;;;;38.47;14.63;;;0.50;99.90;;;;;;5057853;28;20017;-69
2024/01/11 10:42:51;;;;;;;46.85;17.35;;;0.40;99.90;;;;;;5057398;28;20032;-70
2024/01/11 10:45:18;;;;;;;42.60;14.80;;;0.60;99.90;;;;;;5057077;28;20035;-70
2024/01/11 10:48:05;;;;;;;43.40;15.80;;;0.70;99.90;;;;;;5057199;28;20066;-70
2024/01/11 10:50:35;;;;;;;45.75;16.70;;;0.90;99.90;;;;;;5058091;28;20029;-70
2024/01/11 10:53:28;;;;;;;44.17;15.68;;;1.00;99.90;;;;;;5057179;28;20037;-70
2024/01/11 10:55:55;;;;;;;52.85;17.63;;;1.00;99.90;;;;;;5057686;28;20025;-70
2024/01/11 10:58:22;;;;;;;38.83;14.45;;;0.90;99.90;;;;;;5057787;28;20021;-70
2024/01/11 11:00:50;;;;;;;38.58;15.63;;;1.10;99.90;;;;;;5057698;28;20031;-70
2024/01/11 11:03:18;;;;;;;44.35;15.32;;;1.10;99.90;;;;;;5057617;28;20025;-69
2024/01/11 11:05:47;;;;;;;32.78;13.95;;;1.10;99.90;;;;;;5057523;28;20028;-70
2024/01/11 11:08:14;;;;;;;35.80;14.25;;;1.40;99.90;;;;;;5057340;28;20075;-70
2024/01/11 11:10:41;;;;;;;38.55;15.27;;;1.50;99.90;;;;;;5057428;28;20036;-70
2024/01/11 11:13:09;;;;;;;38.55;15.15;;;1.80;99.90;;;;;;5057521;28;20090;-70
2024/01/11 11:15:37;;;;;;;38.80;13.82;;;2.10;99.90;;;;;;5057355;28;20071;-69
2024/01/11 11:18:05;;;;;;;39.75;14.65;;;2.30;99.90;;;;;;5057258;28;20079;-69
2024/01/11 11:20:32;;;;;;;41.33;15.15;;;2.30;99.90;;;;;;5057554;28;20025;-70
2024/01/11 11:23:04;;;;;;;41.30;15.98;;;2.20;99.90;;;;;;5057287;28;20075;-70
2024/01/11 11:25:30;;;;;;;40.08;14.73;;;2.40;99.90;;;;;;5056195;28;20152;-70
2024/01/11 11:27:56;;;;;;;39.72;15.50;;;2.60;99.90;;;;;;5057207;28;20029;-70
2024/01/11 11:30:22;;;;;;;41.67;16.65;;;2.80;99.90;;;;;;5057030;28;20028;-70
2024/01/11 11:32:47;;;;;;;43.13;16.40;;;2.80;99.90;;;;;;5057004;28;20025;-70
2024/01/11 11:35:13;;;;;;;38.88;14.35;;;2.70;99.90;;;;;;5056210;28;20116;-69
2024/01/11 11:37:39;;;;;;;35.13;14.50;;;2.90;99.90;;;;;;5056651;28;20032;-70
2024/01/11 11:40:10;;;;;;;45.55;17.08;;;3.20;99.90;;;;;;5056927;28;20075;-70
2024/01/11 11:42:36;;;;;;;41.22;15.80;;;3.40;99.90;;;;;;5056531;28;20035;-69
2024/01/11 11:45:02;;;;;;;41.67;15.40;;;3.50;99.90;;;;;;5057300;28;20033;-69
2024/01/11 11:47:35;;;;;;;41.63;15.98;;;3.60;99.90;;;;;;5056797;28;20029;-70
2024/01/11 11:50:13;;;;;;;37.70;14.75;;;3.70;99.90;;;;;;5056881;28;20021;-70
2024/01/11 11:52:41;;;;;;;40.90;16.55;;;3.70;99.90;;;;;;5056796;28;20032;-70
2024/01/11 11:55:08;;;;;;;35.03;14.35;;;3.80;99.90;;;;;;5056830;28;20025;-70
2024/01/11 11:57:35;;;;;;;36.17;14.88;;;4.00;99.90;;;;;;5056750;28;20017;-70
2024/01/11 12:00:05;;;;;;;38.75;14.98;;;4.10;99.90;;;;;;5056844;28;20036;-69
2024/01/11 12:02:31;;;;;;;40.42;15.82;;;3.90;99.90;;;;;;5057104;28;20021;-70
2024/01/11 12:04:57;;;;;;;39.42;15.52;;;4.00;99.90;;;;;;5061273;28;20029;-70
2024/01/11 12:07:23;;;;;;;30.83;13.38;;;4.00;99.90;;;;;;5060280;28;20021;-70
2024/01/11 12:09:49;;;;;;;41.08;13.93;;;4.00;99.90;;;;;;5059808;28;20050;-70
2024/01/11 12:12:17;;;;;;;33.50;13.40;;;4.10;99.90;;;;;;5060743;28;20075;-70
2024/01/11 12:14:43;;;;;;;33.30;13.98;;;4.30;99.90;;;;;;5060714;28;20028;-70
2024/01/11 12:17:09;;;;;;;36.50;13.55;;;4.20;99.90;;;;;;5061413;28;20025;-70
2024/01/11 12:19:34;;;;;;;38.88;15.18;;;4.40;99.90;;;;;;5060921;28;20028;-70
2024/01/11 12:22:00;;;;;;;36.40;13.93;;;4.40;99.90;;;;;;5060634;28;20036;-70
2024/01/11 12:24:26;;;;;;;25.83;12.18;;;4.30;99.90;;;;;;5060736;28;20021;-70